Time;durP1;ratioP1;P1;durP2;ratioP2;P2;SDS_P1;SDS_P2;PMS_P1;PMS_P2;Temp;Humidity;BMP_temperature;BMP_pressure;BME280_temperature;BME280_humidity;BME280_pressure;Samples;Min_cycle;Max_cycle;Signal;HPM_P1;HPM_P2
2022/05/16 00:01:23;;;;;;;6.57;5.93;;;11.80;1.00;;;;;;4987015;28;20926;-54
2022/05/16 00:03:49;;;;;;;7.10;6.40;;;11.70;99.90;;;;;;4976355;28;20623;-53
2022/05/16 00:06:14;;;;;;;6.60;5.90;;;11.70;1.00;;;;;;4976906;28;20199;-54
2022/05/16 00:08:40;;;;;;;6.60;6.00;;;11.60;1.00;;;;;;4989130;28;20190;-55
2022/05/16 00:11:05;;;;;;;6.47;5.87;;;11.60;69.40;;;;;;4989970;28;21001;-55
2022/05/16 00:13:31;;;;;;;7.90;6.63;;;11.60;29.00;;;;;;4988499;28;20188;-52
2022/05/16 00:15:56;;;;;;;8.07;6.30;;;11.50;23.80;;;;;;4986760;28;20190;-54
2022/05/16 00:18:23;;;;;;;8.30;6.17;;;11.50;94.30;;;;;;4987044;28;20235;-54
2022/05/16 00:20:48;;;;;;;6.10;5.50;;;11.50;99.90;;;;;;4989769;28;20294;-55
2022/05/16 00:23:14;;;;;;;6.50;5.90;;;11.50;99.90;;;;;;4985370;28;20800;-52
2022/05/16 00:25:40;;;;;;;5.90;5.30;;;11.50;99.90;;;;;;4980729;28;20185;-52
2022/05/16 00:28:05;;;;;;;6.00;5.37;;;11.50;31.30;;;;;;4988596;28;20650;-52
2022/05/16 00:30:31;;;;;;;7.73;5.93;;;11.40;1.00;;;;;;4988832;28;20262;-52
2022/05/16 00:32:57;;;;;;;5.70;5.10;;;11.40;1.50;;;;;;4989303;28;20259;-54
2022/05/16 00:35:23;;;;;;;5.70;5.20;;;11.40;16.50;;;;;;4984196;28;20226;-57
2022/05/16 00:37:49;;;;;;;8.33;5.63;;;11.40;1.00;;;;;;4988788;28;20212;-55
2022/05/16 00:40:15;;;;;;;7.23;6.37;;;11.40;1.00;;;;;;4974974;28;20927;-55
2022/05/16 00:42:41;;;;;;;5.83;5.30;;;11.30;22.00;;;;;;4989076;28;20439;-56
2022/05/16 00:45:10;;;;;;;6.00;5.40;;;11.30;99.90;;;;;;4988162;28;20435;-54
2022/05/16 00:47:36;;;;;;;6.60;5.40;;;11.30;99.90;;;;;;4989424;28;20921;-51
2022/05/16 00:50:03;;;;;;;6.37;5.83;;;11.20;24.90;;;;;;4988235;28;20447;-53
2022/05/16 00:52:41;;;;;;;6.63;5.50;;;11.20;7.70;;;;;;4977225;28;20189;-54
2022/05/16 00:55:10;;;;;;;8.57;6.00;;;11.10;51.00;;;;;;4986476;28;20431;-54
2022/05/16 00:57:43;;;;;;;5.77;5.13;;;11.10;93.40;;;;;;4989461;28;20459;-54
2022/05/16 01:00:23;;;;;;;6.70;6.00;;;11.00;99.90;;;;;;4988396;28;20443;-51
2022/05/16 01:05:38;;;;;;;6.00;5.50;;;11.00;99.90;;;;;;4974451;28;20495;-53
2022/05/16 01:08:07;;;;;;;6.40;5.80;;;10.90;99.90;;;;;;4984421;28;20423;-52
2022/05/16 01:10:33;;;;;;;6.07;5.60;;;10.90;99.90;;;;;;4984649;28;21916;-57
2022/05/16 01:13:00;;;;;;;6.40;5.80;;;10.90;99.90;;;;;;4987413;28;20443;-57
2022/05/16 01:15:33;;;;;;;6.80;6.20;;;10.90;99.90;;;;;;4989101;28;20461;-52
2022/05/16 01:17:59;;;;;;;7.50;6.70;;;10.90;99.90;;;;;;4987124;28;20471;-54
2022/05/16 01:20:56;;;;;;;6.70;6.10;;;10.80;99.90;;;;;;4983220;28;20497;-57
2022/05/16 01:23:25;;;;;;;6.73;6.00;;;10.80;1.00;;;;;;4984101;28;20204;-56
2022/05/16 01:25:51;;;;;;;6.70;6.10;;;10.70;1.00;;;;;;4980356;28;20486;-55
2022/05/16 01:28:19;;;;;;;6.57;5.60;;;10.60;1.00;;;;;;4986968;28;20519;-53
2022/05/16 01:30:47;;;;;;;9.90;6.70;;;10.50;1.00;;;;;;4984831;28;20827;-54
2022/05/16 01:33:21;;;;;;;6.57;5.97;;;10.50;1.00;;;;;;4988457;28;20431;-54
2022/05/16 01:35:47;;;;;;;5.93;5.33;;;10.40;1.00;;;;;;4983002;28;20440;-55
2022/05/16 01:38:21;;;;;;;6.70;6.00;;;10.40;1.00;;;;;;4989835;28;20474;-55
2022/05/16 01:40:50;;;;;;;6.20;5.60;;;10.40;1.00;;;;;;4992227;28;21359;-54
2022/05/16 01:43:17;;;;;;;12.77;6.00;;;10.50;1.00;;;;;;4991235;28;20462;-55
2022/05/16 01:45:44;;;;;;;7.13;6.23;;;10.40;1.00;;;;;;4989434;28;20427;-57
2022/05/16 01:48:11;;;;;;;6.30;5.63;;;10.30;1.00;;;;;;4991880;28;20542;-54
2022/05/16 01:50:38;;;;;;;8.70;6.70;;;10.40;1.00;;;;;;4989680;28;20562;-54
2022/05/16 01:53:04;;;;;;;8.60;6.03;;;10.30;1.00;;;;;;4983671;28;21181;-54
2022/05/16 01:55:29;;;;;;;6.40;5.80;;;10.30;1.00;;;;;;4990447;28;20569;-55
2022/05/16 01:57:55;;;;;;;7.87;6.33;;;10.30;1.00;;;;;;4991837;28;20215;-55
2022/05/16 02:00:21;;;;;;;6.60;6.00;;;10.20;1.00;;;;;;4990327;28;20180;-53
2022/05/16 02:02:47;;;;;;;6.70;6.03;;;10.20;1.00;;;;;;4991318;28;20184;-54
2022/05/16 02:05:18;;;;;;;5.90;5.40;;;10.20;1.00;;;;;;4990951;28;20465;-54
2022/05/16 02:07:45;;;;;;;7.00;6.40;;;10.10;1.00;;;;;;4972905;28;20177;-50
2022/05/16 02:10:12;;;;;;;6.90;5.90;;;10.00;1.00;;;;;;4973646;28;20510;-55
2022/05/16 02:12:37;;;;;;;6.53;5.93;;;10.00;1.00;;;;;;4990119;28;20771;-54
2022/05/16 02:15:05;;;;;;;6.30;5.80;;;10.00;1.00;;;;;;4989784;28;20443;-55
2022/05/16 02:17:30;;;;;;;6.43;5.83;;;9.90;1.00;;;;;;4992952;28;20302;-51
2022/05/16 02:19:56;;;;;;;7.87;6.33;;;9.90;1.00;;;;;;4991270;28;20925;-52
2022/05/16 02:25:06;;;;;;;7.07;6.40;;;9.90;1.00;;;;;;4990673;28;20250;-51
2022/05/16 02:27:32;;;;;;;9.43;6.30;;;9.90;1.00;;;;;;4993612;28;20443;-53
2022/05/16 02:29:57;;;;;;;6.60;6.10;;;9.90;1.00;;;;;;4993631;28;20476;-54
2022/05/16 02:32:23;;;;;;;7.87;6.77;;;9.90;1.00;;;;;;4993673;28;20227;-54
2022/05/16 02:34:49;;;;;;;6.53;5.93;;;9.90;1.00;;;;;;4991806;28;20180;-56
2022/05/16 02:37:15;;;;;;;6.93;6.33;;;9.90;1.00;;;;;;4992345;28;20918;-57
2022/05/16 02:39:45;;;;;;;8.00;6.90;;;9.90;1.00;;;;;;4988411;28;20523;-52
2022/05/16 02:42:11;;;;;;;6.60;5.90;;;9.90;1.00;;;;;;4987086;28;20660;-56
2022/05/16 02:44:38;;;;;;;7.40;6.60;;;9.90;1.00;;;;;;4989124;28;20436;-55
2022/05/16 02:47:05;;;;;;;8.67;6.20;;;9.90;1.00;;;;;;4993424;28;20955;-53
2022/05/16 02:49:31;;;;;;;7.17;5.77;;;9.90;1.00;;;;;;4991833;28;20810;-56
2022/05/16 02:51:57;;;;;;;8.10;6.23;;;9.80;1.00;;;;;;4991991;28;20469;-54
2022/05/16 02:54:22;;;;;;;6.90;6.20;;;9.80;1.00;;;;;;4985548;28;20462;-56
2022/05/16 02:56:48;;;;;;;7.43;6.70;;;9.80;1.00;;;;;;4992334;28;20224;-55
2022/05/16 02:59:14;;;;;;;8.00;6.77;;;9.80;1.00;;;;;;4992534;28;20548;-55
2022/05/16 03:01:40;;;;;;;7.87;7.10;;;9.70;1.00;;;;;;4991948;28;20290;-55
2022/05/16 03:04:05;;;;;;;7.17;6.57;;;9.80;1.00;;;;;;4989742;28;20511;-58
2022/05/16 03:06:31;;;;;;;7.57;6.53;;;9.70;1.00;;;;;;4987769;28;20177;-53
2022/05/16 03:08:57;;;;;;;7.20;6.57;;;9.70;1.00;;;;;;4991856;28;20639;-55
2022/05/16 03:11:22;;;;;;;7.10;6.20;;;9.70;1.00;;;;;;4991583;28;20467;-54
2022/05/16 03:13:49;;;;;;;7.47;6.67;;;9.70;1.00;;;;;;4989579;28;20520;-51
2022/05/16 03:16:14;;;;;;;7.43;6.73;;;9.70;1.00;;;;;;5002859;28;20246;-53
2022/05/16 03:18:40;;;;;;;7.40;6.70;;;9.60;1.00;;;;;;4971284;28;20836;-55
2022/05/16 03:21:06;;;;;;;7.90;6.90;;;9.60;1.00;;;;;;4986442;28;20508;-54
2022/05/16 03:23:31;;;;;;;8.30;6.80;;;9.60;1.00;;;;;;4990645;28;21030;-56
2022/05/16 03:25:57;;;;;;;7.83;7.10;;;9.60;1.00;;;;;;4988847;28;22245;-52
2022/05/16 03:28:23;;;;;;;7.33;6.63;;;9.60;1.00;;;;;;4985540;28;20268;-55
2022/05/16 03:30:48;;;;;;;8.27;7.07;;;9.50;1.00;;;;;;4987235;28;20271;-57
2022/05/16 03:33:15;;;;;;;7.80;6.67;;;9.50;1.00;;;;;;4989731;28;20192;-57
2022/05/16 03:35:40;;;;;;;9.13;7.33;;;9.50;1.00;;;;;;4978759;28;20185;-57
2022/05/16 03:38:06;;;;;;;8.90;6.73;;;9.50;1.00;;;;;;4979084;28;20463;-56
2022/05/16 03:40:45;;;;;;;7.80;7.10;;;9.50;1.00;;;;;;4989215;28;20666;-55
2022/05/16 03:43:12;;;;;;;8.53;7.17;;;9.50;1.00;;;;;;4982067;28;20183;-54
2022/05/16 03:45:38;;;;;;;8.10;7.20;;;9.50;1.00;;;;;;4988792;28;20440;-52
2022/05/16 03:48:05;;;;;;;7.17;6.47;;;9.50;1.00;;;;;;4989630;28;20423;-54
2022/05/16 03:50:31;;;;;;;8.00;7.17;;;9.50;1.00;;;;;;4989359;28;20689;-54
2022/05/16 03:52:59;;;;;;;8.93;8.07;;;9.50;1.00;;;;;;4983198;28;20507;-53
2022/05/16 03:55:26;;;;;;;8.20;7.13;;;9.50;1.00;;;;;;4981258;28;20832;-56
2022/05/16 03:57:52;;;;;;;8.13;7.37;;;9.50;1.00;;;;;;4970192;28;20479;-56
2022/05/16 04:00:18;;;;;;;8.57;7.60;;;9.50;1.00;;;;;;4970913;28;20420;-53
2022/05/16 04:02:45;;;;;;;8.07;6.80;;;9.50;1.00;;;;;;4989535;28;20188;-55
2022/05/16 04:05:18;;;;;;;8.27;7.47;;;9.50;1.00;;;;;;4988648;28;20435;-54
2022/05/16 04:07:44;;;;;;;7.50;6.80;;;9.60;1.00;;;;;;4988488;28;20439;-52
2022/05/16 04:10:10;;;;;;;10.27;7.80;;;9.50;1.00;;;;;;4985018;28;21007;-53
2022/05/16 04:12:35;;;;;;;8.00;7.30;;;9.60;1.00;;;;;;4988158;28;20444;-57
2022/05/16 04:15:02;;;;;;;7.53;6.80;;;9.60;1.00;;;;;;4987156;28;20447;-54
2022/05/16 04:17:27;;;;;;;8.43;7.20;;;9.60;1.00;;;;;;4988351;28;20295;-57
2022/05/16 04:19:53;;;;;;;8.80;7.90;;;9.70;1.00;;;;;;4987908;28;20573;-57
2022/05/16 04:22:18;;;;;;;8.60;7.90;;;9.70;1.00;;;;;;4983584;28;20661;-57
2022/05/16 04:24:44;;;;;;;8.03;7.23;;;9.70;1.00;;;;;;4978560;28;20195;-56
2022/05/16 04:27:09;;;;;;;7.60;6.80;;;9.80;1.00;;;;;;4980626;28;20188;-55
2022/05/16 04:29:35;;;;;;;7.70;7.00;;;9.90;1.00;;;;;;4979121;28;20192;-57
2022/05/16 04:32:01;;;;;;;7.80;7.00;;;10.00;1.00;;;;;;4979333;28;20204;-54
2022/05/16 04:34:26;;;;;;;8.87;7.27;;;10.00;1.00;;;;;;4978734;28;20188;-56
2022/05/16 04:36:52;;;;;;;10.20;7.60;;;10.10;1.00;;;;;;4976371;28;20258;-56
2022/05/16 04:39:17;;;;;;;10.27;7.47;;;10.10;1.00;;;;;;4978402;28;20279;-56
2022/05/16 04:44:27;;;;;;;7.60;6.90;;;10.30;1.00;;;;;;4978570;28;20591;-53
2022/05/16 04:46:53;;;;;;;9.00;8.20;;;10.40;1.00;;;;;;4981427;28;20439;-56
2022/05/16 04:49:18;;;;;;;8.83;7.03;;;10.50;1.00;;;;;;4988221;28;20652;-57
2022/05/16 04:51:44;;;;;;;8.70;7.90;;;10.50;1.00;;;;;;4987497;28;20189;-56
2022/05/16 04:54:09;;;;;;;9.50;8.00;;;10.60;1.00;;;;;;4988636;28;20536;-53
2022/05/16 04:56:36;;;;;;;7.73;6.70;;;10.70;1.00;;;;;;4984689;28;20220;-57
2022/05/16 04:59:01;;;;;;;7.97;7.27;;;10.80;1.00;;;;;;4977333;28;20195;-51
2022/05/16 05:01:27;;;;;;;8.40;6.90;;;10.90;1.00;;;;;;4979024;28;20443;-55
2022/05/16 05:03:52;;;;;;;8.27;7.57;;;11.00;1.00;;;;;;4989554;28;20432;-56
2022/05/16 05:06:18;;;;;;;7.60;6.90;;;11.10;1.00;;;;;;4987928;28;20188;-54
2022/05/16 05:08:45;;;;;;;8.80;8.00;;;11.20;1.00;;;;;;4981326;28;20187;-55
2022/05/16 05:16:38;;;;;;;9.80;8.57;;;11.40;99.90;;;;;;4990755;28;20466;-58
2022/05/16 05:19:04;;;;;;;8.50;7.70;;;11.50;99.90;;;;;;4992603;28;20808;-57
2022/05/16 05:21:30;;;;;;;7.10;6.50;;;11.60;99.90;;;;;;4988328;28;20199;-57
2022/05/16 05:23:56;;;;;;;10.13;9.17;;;11.80;99.90;;;;;;4984842;28;20431;-57
2022/05/16 05:26:22;;;;;;;9.50;7.93;;;11.90;99.90;;;;;;4992096;28;20180;-57
2022/05/16 05:28:47;;;;;;;7.13;6.53;;;12.00;99.90;;;;;;4989069;28;20235;-57
2022/05/16 05:31:16;;;;;;;8.27;7.50;;;12.00;99.90;;;;;;4989286;28;20455;-56
2022/05/16 05:33:42;;;;;;;9.90;6.30;;;12.10;99.90;;;;;;4991901;28;20648;-57
2022/05/16 05:36:08;;;;;;;8.80;7.90;;;12.20;99.90;;;;;;4992496;28;20447;-56
2022/05/16 05:38:36;;;;;;;8.57;7.67;;;12.20;99.90;;;;;;4985189;28;20981;-57
2022/05/16 05:41:05;;;;;;;8.10;7.33;;;12.30;99.90;;;;;;4990628;28;20189;-58
2022/05/16 05:43:31;;;;;;;8.73;6.80;;;12.40;70.00;;;;;;4987560;28;20510;-56
2022/05/16 05:45:57;;;;;;;7.90;7.20;;;12.40;1.00;;;;;;4991427;28;20439;-57
2022/05/16 05:48:23;;;;;;;8.17;6.60;;;12.60;1.00;;;;;;4990953;28;20447;-55
2022/05/16 05:50:48;;;;;;;7.40;6.70;;;12.70;99.90;;;;;;4973856;28;20707;-54
2022/05/16 05:53:14;;;;;;;8.13;7.40;;;12.80;99.90;;;;;;4990081;28;20278;-53
2022/05/16 05:55:40;;;;;;;8.33;7.53;;;12.80;1.00;;;;;;4992013;28;20272;-52
2022/05/16 05:58:06;;;;;;;7.23;6.63;;;13.00;1.00;;;;;;4980150;28;20212;-54
2022/05/16 06:00:31;;;;;;;8.10;7.30;;;13.10;99.90;;;;;;4989579;28;20442;-56
2022/05/16 06:03:00;;;;;;;8.20;7.40;;;13.20;1.00;;;;;;4992196;28;20196;-56
2022/05/16 06:05:26;;;;;;;7.20;6.60;;;13.30;1.00;;;;;;4992161;28;20250;-56
2022/05/16 06:07:52;;;;;;;9.17;7.43;;;13.40;1.00;;;;;;4991694;28;20487;-53
2022/05/16 06:10:17;;;;;;;7.43;6.67;;;13.60;99.90;;;;;;4986615;28;20419;-56
2022/05/16 06:12:43;;;;;;;6.97;6.47;;;13.70;99.90;;;;;;4992093;28;20549;-58
2022/05/16 06:15:10;;;;;;;7.83;6.50;;;13.70;1.00;;;;;;4992124;28;20637;-57
2022/05/16 06:17:35;;;;;;;7.20;6.60;;;13.80;1.00;;;;;;4990587;28;20919;-55
2022/05/16 06:20:06;;;;;;;6.60;6.10;;;14.10;1.00;;;;;;4991245;28;20414;-57
2022/05/16 06:22:34;;;;;;;8.53;6.70;;;14.20;99.90;;;;;;4991842;28;20192;-55
2022/05/16 06:27:49;;;;;;;7.37;6.67;;;14.50;1.00;;;;;;4981587;28;20953;-57
2022/05/16 06:30:19;;;;;;;7.20;6.60;;;14.70;1.00;;;;;;4991007;28;20440;-56
2022/05/16 06:32:47;;;;;;;7.50;6.77;;;14.90;99.90;;;;;;4990613;28;20228;-55
2022/05/16 06:35:14;;;;;;;7.03;6.40;;;15.20;99.90;;;;;;4986077;28;20435;-57
2022/05/16 06:37:39;;;;;;;6.80;6.00;;;15.40;99.90;;;;;;4987936;28;20582;-56
2022/05/16 06:40:06;;;;;;;6.10;5.50;;;15.60;1.00;;;;;;4987502;28;20515;-51
2022/05/16 06:42:31;;;;;;;6.00;5.50;;;16.00;1.00;;;;;;4991251;28;20253;-57
2022/05/16 06:44:57;;;;;;;6.43;5.83;;;16.20;99.90;;;;;;4974336;28;21012;-56
2022/05/16 06:47:23;;;;;;;5.83;5.33;;;16.50;99.90;;;;;;4986584;28;20194;-55
2022/05/16 06:49:49;;;;;;;10.93;6.07;;;16.70;73.60;;;;;;4990889;28;20222;-53
2022/05/16 06:52:16;;;;;;;8.50;6.00;;;16.90;1.00;;;;;;4990757;28;20446;-54
2022/05/16 06:54:42;;;;;;;6.57;6.07;;;17.20;1.00;;;;;;4990634;28;20182;-57
2022/05/16 06:57:08;;;;;;;6.93;5.93;;;17.30;1.00;;;;;;4990767;28;20510;-57
2022/05/16 06:59:34;;;;;;;6.27;5.77;;;17.60;1.00;;;;;;4989888;28;20869;-56
2022/05/16 07:01:59;;;;;;;5.70;5.30;;;17.70;1.00;;;;;;4991041;28;20430;-54
2022/05/16 07:04:25;;;;;;;6.63;6.03;;;17.90;1.00;;;;;;4983125;28;20191;-56
2022/05/16 07:06:50;;;;;;;6.00;5.40;;;18.00;1.00;;;;;;4982776;28;20199;-55
2022/05/16 07:09:16;;;;;;;6.40;5.90;;;18.20;1.00;;;;;;4983925;28;20216;-55
2022/05/16 07:11:41;;;;;;;6.20;5.70;;;18.30;1.00;;;;;;4985471;28;20646;-56
2022/05/16 07:14:07;;;;;;;6.47;6.07;;;18.40;1.00;;;;;;4981513;28;20180;-57
2022/05/16 07:16:32;;;;;;;7.73;5.83;;;18.60;1.00;;;;;;4989479;28;20706;-57
2022/05/16 07:18:58;;;;;;;6.20;5.70;;;18.80;1.00;;;;;;4989330;28;20218;-57
2022/05/16 07:21:23;;;;;;;6.50;5.90;;;19.00;1.00;;;;;;4986816;28;20280;-56
2022/05/16 07:23:49;;;;;;;7.23;6.63;;;19.20;1.00;;;;;;4971693;28;20185;-53
2022/05/16 07:28:58;;;;;;;7.23;6.57;;;19.50;99.90;;;;;;4979357;28;20238;-57
2022/05/16 07:31:25;;;;;;;7.13;6.53;;;19.70;99.90;;;;;;4985881;28;20435;-53
2022/05/16 07:33:51;;;;;;;6.93;6.37;;;19.80;99.90;;;;;;4971305;28;20541;-56
2022/05/16 07:36:16;;;;;;;6.80;6.10;;;19.90;99.90;;;;;;4984738;28;20415;-57
2022/05/16 07:38:42;;;;;;;6.70;6.17;;;19.90;99.90;;;;;;4989111;28;20212;-55
2022/05/16 07:41:09;;;;;;;7.20;6.70;;;20.10;99.90;;;;;;4990356;28;20184;-57
2022/05/16 07:43:35;;;;;;;6.40;6.00;;;20.20;99.90;;;;;;4989483;28;20231;-55
2022/05/16 07:46:01;;;;;;;6.87;6.17;;;20.30;99.90;;;;;;4990253;28;20420;-57
2022/05/16 07:48:26;;;;;;;6.37;5.87;;;20.50;99.90;;;;;;4989759;28;20481;-56
2022/05/16 07:50:53;;;;;;;7.27;6.63;;;20.60;99.90;;;;;;4980653;28;20842;-57
2022/05/16 07:53:18;;;;;;;6.47;5.70;;;20.80;99.90;;;;;;4970908;28;20189;-56
2022/05/16 07:55:49;;;;;;;6.77;6.27;;;20.80;99.90;;;;;;4987189;28;20478;-57
2022/05/16 07:58:14;;;;;;;7.60;7.00;;;20.90;99.90;;;;;;4980806;28;20217;-52
2022/05/16 08:00:41;;;;;;;6.47;5.83;;;21.10;99.90;;;;;;4973119;28;20516;-56
2022/05/16 08:03:11;;;;;;;7.07;6.50;;;21.20;99.90;;;;;;4989926;28;20208;-54
2022/05/16 08:05:37;;;;;;;6.67;6.17;;;21.30;99.90;;;;;;4989506;28;20425;-50
2022/05/16 08:10:47;;;;;;;6.23;5.80;;;21.60;99.90;;;;;;4989570;28;20200;-53
2022/05/16 08:13:13;;;;;;;6.80;6.30;;;21.70;99.90;;;;;;4984916;28;20444;-55
2022/05/16 08:15:41;;;;;;;6.97;6.47;;;21.80;99.90;;;;;;4985664;28;20188;-55
2022/05/16 08:18:08;;;;;;;7.03;6.43;;;22.00;99.90;;;;;;4979691;28;20484;-50
2022/05/16 08:20:39;;;;;;;7.10;6.50;;;22.20;99.90;;;;;;4971392;28;20433;-55
2022/05/16 08:23:05;;;;;;;7.17;6.67;;;22.30;99.90;;;;;;4979278;28;20421;-57
2022/05/16 08:25:31;;;;;;;6.90;6.30;;;22.50;99.90;;;;;;4990234;28;20402;-53
2022/05/16 08:27:56;;;;;;;6.47;5.97;;;22.60;99.90;;;;;;4989797;28;20420;-55
2022/05/16 08:30:23;;;;;;;6.40;5.90;;;22.80;99.90;;;;;;4989609;28;20209;-55
2022/05/16 08:32:49;;;;;;;6.80;6.30;;;22.90;99.90;;;;;;4989216;28;20579;-55
2022/05/16 08:35:18;;;;;;;7.97;6.83;;;23.00;99.90;;;;;;4989818;28;20429;-52
2022/05/16 08:40:40;;;;;;;6.13;5.63;;;23.40;99.90;;;;;;4981040;28;20518;-53
2022/05/16 08:43:15;;;;;;;6.33;5.93;;;23.70;99.90;;;;;;4982266;28;20418;-54
2022/05/16 08:45:51;;;;;;;6.27;5.87;;;23.80;99.90;;;;;;4987576;28;20442;-56
2022/05/16 08:48:32;;;;;;;6.53;5.90;;;24.00;99.90;;;;;;4993619;28;20437;-55
2022/05/16 08:51:13;;;;;;;7.20;6.43;;;24.10;99.90;;;;;;4980948;28;20450;-56
2022/05/16 08:53:48;;;;;;;7.43;5.80;;;24.30;99.90;;;;;;4993629;28;20521;-56
2022/05/16 08:56:28;;;;;;;6.40;5.87;;;24.70;99.90;;;;;;4985049;28;20475;-54
2022/05/16 08:59:04;;;;;;;6.53;6.03;;;25.00;99.90;;;;;;4975558;28;21094;-56
2022/05/16 09:01:55;;;;;;;6.97;6.30;;;25.40;99.90;;;;;;4974027;28;20424;-51
2022/05/16 09:04:30;;;;;;;6.40;6.00;;;25.80;99.90;;;;;;4980372;28;20825;-53
2022/05/16 09:07:04;;;;;;;6.87;6.13;;;26.30;99.90;;;;;;4993349;28;20820;-55
2022/05/16 09:09:52;;;;;;;7.70;6.97;;;26.70;99.90;;;;;;4991861;28;20444;-54
2022/05/16 09:12:34;;;;;;;5.80;5.50;;;27.20;99.90;;;;;;4993321;28;20427;-53
2022/05/16 09:15:30;;;;;;;6.07;5.67;;;27.60;99.90;;;;;;4992317;28;20438;-54
2022/05/16 09:18:27;;;;;;;6.50;5.90;;;28.10;99.90;;;;;;4977242;28;20471;-54
2022/05/16 09:21:10;;;;;;;6.70;6.10;;;28.90;99.90;;;;;;4992058;28;20428;-55
2022/05/16 09:24:05;;;;;;;6.20;5.60;;;29.50;99.90;;;;;;4978024;28;20465;-55
2022/05/16 09:26:33;;;;;;;6.37;5.97;;;30.40;99.90;;;;;;4972977;28;20448;-53
2022/05/16 09:29:21;;;;;;;6.90;6.27;;;30.60;99.90;;;;;;4992208;28;20419;-54
2022/05/16 09:31:49;;;;;;;6.63;6.07;;;31.20;99.90;;;;;;4989012;28;20423;-52
2022/05/16 09:34:15;;;;;;;6.93;6.43;;;31.80;99.90;;;;;;4992127;28;20762;-56
2022/05/16 09:36:45;;;;;;;6.47;5.93;;;32.60;99.90;;;;;;4992620;28;20507;-52
2022/05/16 09:39:16;;;;;;;7.00;6.40;;;32.90;99.90;;;;;;4986976;28;20456;-54
2022/05/16 09:41:48;;;;;;;7.00;6.40;;;33.30;99.90;;;;;;4981250;28;20428;-55
2022/05/16 09:44:38;;;;;;;6.20;5.70;;;33.70;99.90;;;;;;4980468;28;20467;-54
2022/05/16 09:47:19;;;;;;;8.50;6.33;;;34.10;99.90;;;;;;4988300;28;20992;-53
2022/05/16 09:50:04;;;;;;;6.70;6.20;;;34.30;99.90;;;;;;4990969;28;20419;-56
2022/05/16 09:52:36;;;;;;;7.07;6.67;;;35.00;99.90;;;;;;4990871;28;20519;-56
2022/05/16 09:55:11;;;;;;;7.17;6.63;;;35.50;99.90;;;;;;4990558;28;20416;-56
2022/05/16 09:57:48;;;;;;;6.87;6.40;;;35.80;99.90;;;;;;4987726;28;20571;-55
2022/05/16 10:00:30;;;;;;;6.97;6.57;;;35.80;99.90;;;;;;4985021;28;20432;-57
2022/05/16 10:03:14;;;;;;;6.60;6.10;;;35.90;99.90;;;;;;4991602;28;20427;-54
2022/05/16 10:05:47;;;;;;;7.23;6.67;;;36.20;99.90;;;;;;4990985;28;20486;-53
2022/05/16 10:08:22;;;;;;;6.50;6.00;;;36.50;99.90;;;;;;4990537;28;20905;-52
2022/05/16 10:10:48;;;;;;;7.30;6.80;;;36.40;99.90;;;;;;4976651;28;20786;-52
2022/05/16 10:13:15;;;;;;;7.00;6.40;;;36.60;99.90;;;;;;4982649;28;20504;-57
2022/05/16 10:15:41;;;;;;;6.47;5.97;;;36.50;99.90;;;;;;4980872;28;20436;-55
2022/05/16 10:18:15;;;;;;;6.70;6.20;;;36.50;99.90;;;;;;4986919;28;20455;-56
2022/05/16 10:20:46;;;;;;;6.33;5.80;;;36.80;99.90;;;;;;4972582;28;20460;-52
2022/05/16 10:23:23;;;;;;;5.93;5.53;;;37.10;99.90;;;;;;4986747;28;20779;-53
2022/05/16 10:25:52;;;;;;;6.70;6.10;;;37.40;99.90;;;;;;4991301;28;21325;-55
2022/05/16 10:28:40;;;;;;;6.50;6.10;;;37.10;99.90;;;;;;4990723;28;20459;-56
2022/05/16 10:34:06;;;;;;;6.50;6.10;;;36.60;99.90;;;;;;4989354;28;20438;-55
2022/05/16 10:36:33;;;;;;;6.97;6.47;;;37.50;99.90;;;;;;4974983;28;20723;-54
2022/05/16 10:39:04;;;;;;;7.00;6.30;;;37.40;99.90;;;;;;4991411;28;20443;-56
2022/05/16 10:41:38;;;;;;;7.43;7.00;;;37.70;99.90;;;;;;4988109;28;20434;-56
2022/05/16 10:44:36;;;;;;;8.03;7.13;;;37.70;99.90;;;;;;4990760;28;20446;-57
2022/05/16 10:47:11;;;;;;;6.83;6.33;;;37.90;99.90;;;;;;4976392;28;20415;-55
2022/05/16 10:49:51;;;;;;;8.20;7.37;;;38.20;99.90;;;;;;4987728;28;20461;-52
2022/05/16 10:52:43;;;;;;;7.03;6.53;;;38.60;99.90;;;;;;4989470;28;20793;-56
2022/05/16 10:55:10;;;;;;;7.83;7.13;;;38.60;99.90;;;;;;4991385;28;20420;-56
2022/05/16 10:57:45;;;;;;;8.00;6.57;;;38.70;99.90;;;;;;4991292;28;20431;-56
2022/05/16 11:00:10;;;;;;;7.07;6.47;;;38.50;99.90;;;;;;4990517;28;20412;-55
2022/05/16 11:02:52;;;;;;;7.27;6.77;;;38.40;99.90;;;;;;4991377;28;20418;-57
2022/05/16 11:05:38;;;;;;;7.60;7.10;;;38.50;99.90;;;;;;4990317;28;20180;-55
2022/05/16 11:08:24;;;;;;;6.90;6.27;;;38.20;99.70;;;;;;4991299;28;21349;-54
2022/05/16 11:10:56;;;;;;;7.07;6.57;;;38.40;99.90;;;;;;4990023;28;21161;-56
2022/05/16 11:13:48;;;;;;;7.67;7.00;;;38.80;99.40;;;;;;4991190;28;20805;-56
2022/05/16 11:16:32;;;;;;;7.40;6.80;;;39.10;98.80;;;;;;4988488;28;20485;-55
2022/05/16 11:19:26;;;;;;;7.13;6.73;;;38.50;99.30;;;;;;4990380;28;20436;-54
2022/05/16 11:21:56;;;;;;;7.13;6.63;;;38.50;97.60;;;;;;4990573;28;20439;-56
2022/05/16 11:25:00;;;;;;;7.20;6.70;;;38.60;98.10;;;;;;4991018;28;20756;-54
2022/05/16 11:27:54;;;;;;;6.87;6.47;;;38.30;97.40;;;;;;4990084;28;20529;-56
2022/05/16 11:30:29;;;;;;;7.63;7.13;;;38.30;96.50;;;;;;4990896;28;20408;-54
2022/05/16 11:33:28;;;;;;;7.60;7.20;;;38.80;95.60;;;;;;4990707;28;20418;-55
2022/05/16 11:36:08;;;;;;;7.13;6.63;;;39.00;95.40;;;;;;4988999;28;20526;-53
2022/05/16 11:38:56;;;;;;;7.77;7.27;;;39.10;94.90;;;;;;4990525;28;20430;-56
2022/05/16 11:41:46;;;;;;;7.67;7.17;;;39.10;95.10;;;;;;4989287;28;20442;-54
2022/05/16 11:44:28;;;;;;;7.37;6.87;;;38.80;95.20;;;;;;4988695;28;20427;-53
2022/05/16 11:46:57;;;;;;;7.70;7.20;;;39.10;94.00;;;;;;4984761;28;20506;-53
2022/05/16 11:49:42;;;;;;;6.87;6.40;;;39.20;93.80;;;;;;4989795;28;20488;-55
2022/05/16 11:52:23;;;;;;;7.40;6.90;;;39.10;93.90;;;;;;4989786;28;20431;-54
2022/05/16 11:55:00;;;;;;;6.97;6.57;;;38.50;93.80;;;;;;4990677;28;20514;-56
2022/05/16 12:03:05;;;;;;;7.67;7.17;;;37.80;94.30;;;;;;4989901;28;20494;-55
2022/05/16 12:05:36;;;;;;;7.93;7.40;;;37.20;93.30;;;;;;4988174;28;20935;-55
2022/05/16 12:08:15;;;;;;;7.50;7.00;;;36.40;93.70;;;;;;4990503;28;20455;-54
2022/05/16 12:11:02;;;;;;;7.77;7.27;;;35.70;92.60;;;;;;4990134;28;20897;-57
2022/05/16 12:13:33;;;;;;;7.17;6.77;;;35.50;92.60;;;;;;4986271;28;20454;-55
2022/05/16 12:16:18;;;;;;;7.20;6.50;;;35.10;92.90;;;;;;4990207;28;20397;-56
2022/05/16 12:18:43;;;;;;;7.40;6.87;;;34.90;92.60;;;;;;4989379;28;20410;-57
2022/05/16 12:21:18;;;;;;;8.20;7.60;;;35.30;93.20;;;;;;4989396;28;20518;-56
2022/05/16 12:23:49;;;;;;;7.03;6.57;;;35.10;93.00;;;;;;4988956;28;20223;-53
2022/05/16 12:26:26;;;;;;;7.53;7.03;;;34.90;92.90;;;;;;4990378;28;20466;-57
2022/05/16 12:29:08;;;;;;;7.10;6.70;;;35.20;92.70;;;;;;4990094;28;20462;-55
2022/05/16 12:31:45;;;;;;;6.27;5.87;;;35.50;92.50;;;;;;4973732;28;20421;-55
2022/05/16 12:34:13;;;;;;;7.43;6.80;;;36.30;92.70;;;;;;4989707;28;20510;-56
2022/05/16 12:36:39;;;;;;;7.03;6.43;;;36.70;92.10;;;;;;4990206;28;20392;-56
2022/05/16 12:39:39;;;;;;;9.77;8.87;;;37.20;91.80;;;;;;4990057;28;20466;-55
2022/05/16 12:42:32;;;;;;;7.20;6.53;;;37.70;92.30;;;;;;4988005;28;20203;-56
2022/05/16 12:45:02;;;;;;;6.83;6.43;;;38.30;91.40;;;;;;4989152;28;20482;-56
2022/05/16 12:47:58;;;;;;;7.77;7.20;;;38.40;91.00;;;;;;4989602;28;20937;-53
2022/05/16 12:50:51;;;;;;;6.90;6.30;;;38.20;91.00;;;;;;4987440;28;20426;-56
2022/05/16 12:53:48;;;;;;;6.80;6.30;;;38.00;90.70;;;;;;4989988;28;20407;-55
2022/05/16 12:56:53;;;;;;;7.73;6.93;;;38.40;90.30;;;;;;4987896;28;20471;-56
2022/05/16 12:59:47;;;;;;;7.23;6.70;;;38.60;90.30;;;;;;4985786;28;20447;-53
2022/05/16 13:02:44;;;;;;;7.60;7.03;;;39.10;90.50;;;;;;4970401;28;20425;-51
2022/05/16 13:05:18;;;;;;;7.60;7.00;;;39.70;89.40;;;;;;4969248;28;20471;-53
2022/05/16 13:07:55;;;;;;;7.90;7.30;;;39.70;90.30;;;;;;4987583;28;20465;-54
2022/05/16 13:10:23;;;;;;;6.70;6.30;;;40.10;86.90;;;;;;4989033;28;21156;-55
2022/05/16 13:13:04;;;;;;;7.47;6.63;;;39.70;85.10;;;;;;4988506;28;20522;-55
2022/05/16 13:16:07;;;;;;;7.87;7.37;;;39.70;87.50;;;;;;4989455;28;20910;-53
2022/05/16 13:18:45;;;;;;;7.20;6.70;;;39.40;86.50;;;;;;4988385;28;20431;-54
2022/05/16 13:21:14;;;;;;;7.60;7.10;;;39.70;85.20;;;;;;4989247;28;20435;-54
2022/05/16 13:23:39;;;;;;;8.00;7.50;;;40.60;81.90;;;;;;4989577;28;20426;-55
2022/05/16 13:31:40;;;;;;;7.00;6.30;;;39.80;83.80;;;;;;4992914;28;20510;-55
2022/05/16 13:34:06;;;;;;;6.80;6.40;;;39.10;84.90;;;;;;4992209;28;20763;-50
2022/05/16 13:36:32;;;;;;;6.80;6.30;;;39.20;83.50;;;;;;4991812;28;20497;-56
2022/05/16 13:39:01;;;;;;;7.03;6.63;;;39.00;84.30;;;;;;4990137;28;20193;-55
2022/05/16 13:41:29;;;;;;;7.70;7.10;;;39.00;83.60;;;;;;4992806;28;20423;-54
2022/05/16 13:43:55;;;;;;;7.10;6.70;;;38.80;83.40;;;;;;4992373;28;20439;-55
2022/05/16 13:46:21;;;;;;;7.17;6.77;;;38.70;81.10;;;;;;4990581;28;20785;-55
2022/05/16 13:48:58;;;;;;;6.90;6.40;;;38.90;80.90;;;;;;4984544;28;20562;-54
2022/05/16 13:51:24;;;;;;;7.33;6.00;;;38.90;80.80;;;;;;4992321;28;20430;-55